Time;durP1;ratioP1;P1;durP2;ratioP2;P2;SDS_P1;SDS_P2;PMS_P1;PMS_P2;Temp;Humidity;BMP_temperature;BMP_pressure;BME280_temperature;BME280_humidity;BME280_pressure;Samples;Min_cycle;Max_cycle;Signal;HPM_P1;HPM_P2
2021/11/05 00:01:05;;;;;;;0.30;0.30;;;9.40;91.30;;;;;;5096329;28;20247;-71
2021/11/05 00:03:32;;;;;;;1.23;1.17;;;9.30;91.30;;;;;;5093160;28;20755;-70
2021/11/05 00:05:59;;;;;;;0.87;0.87;;;9.30;91.30;;;;;;5081436;28;20239;-70
2021/11/05 00:08:26;;;;;;;0.20;0.20;;;9.30;91.30;;;;;;5078702;28;20244;-70
2021/11/05 00:10:54;;;;;;;1.53;1.43;;;9.30;91.30;;;;;;5095947;28;20276;-71
2021/11/05 00:13:21;;;;;;;1.23;0.97;;;9.30;91.40;;;;;;5096209;28;20342;-70
2021/11/05 00:15:48;;;;;;;1.07;1.07;;;9.20;91.30;;;;;;5088731;28;20212;-70
2021/11/05 00:18:15;;;;;;;1.07;1.07;;;9.20;91.40;;;;;;5111507;28;20533;-70
2021/11/05 00:20:42;;;;;;;0.73;0.73;;;9.20;91.40;;;;;;5096796;28;20646;-70
2021/11/05 00:23:10;;;;;;;0.40;0.40;;;9.20;91.30;;;;;;5105568;28;20274;-70
2021/11/05 00:25:37;;;;;;;1.43;0.90;;;9.20;91.30;;;;;;5108553;28;20227;-70
2021/11/05 00:28:04;;;;;;;2.67;1.50;;;9.20;91.30;;;;;;5108738;28;20669;-71
2021/11/05 00:30:32;;;;;;;1.03;1.03;;;9.20;91.20;;;;;;5088312;28;20240;-70
2021/11/05 00:32:59;;;;;;;0.77;0.77;;;9.10;91.30;;;;;;5102214;28;20642;-70
2021/11/05 00:35:26;;;;;;;0.70;0.70;;;9.10;91.20;;;;;;5084184;28;20600;-70
2021/11/05 00:37:53;;;;;;;14.77;1.90;;;9.10;91.20;;;;;;5107912;28;20226;-70
2021/11/05 00:40:22;;;;;;;0.30;0.30;;;9.10;91.20;;;;;;5089239;28;20248;-71
2021/11/05 00:42:49;;;;;;;1.80;0.40;;;9.10;91.10;;;;;;5090853;28;20219;-68
2021/11/05 00:45:17;;;;;;;1.03;0.97;;;9.10;91.10;;;;;;5094624;28;20236;-68
2021/11/05 00:47:44;;;;;;;0.20;0.20;;;9.10;91.10;;;;;;5090270;28;20241;-68
2021/11/05 00:50:11;;;;;;;3.67;1.63;;;9.10;91.10;;;;;;5079432;28;20580;-68
2021/11/05 00:52:38;;;;;;;0.53;0.53;;;9.10;91.10;;;;;;5084642;28;20224;-69
2021/11/05 00:55:06;;;;;;;0.53;0.53;;;9.10;91.10;;;;;;5077972;28;20224;-69
2021/11/05 00:57:34;;;;;;;0.73;0.70;;;9.10;91.00;;;;;;5060283;28;20597;-69
2021/11/05 01:00:06;;;;;;;0.10;0.10;;;9.10;91.00;;;;;;5087878;28;20220;-69
2021/11/05 01:02:33;;;;;;;0.40;0.40;;;9.10;91.00;;;;;;5077458;28;20222;-69
2021/11/05 01:05:01;;;;;;;0.67;0.50;;;9.10;91.00;;;;;;5077508;28;20210;-69
2021/11/05 01:07:28;;;;;;;0.60;0.60;;;9.10;91.00;;;;;;5077290;28;20218;-69
2021/11/05 01:09:55;;;;;;;0.57;0.57;;;9.10;91.00;;;;;;5077367;28;20570;-69
2021/11/05 01:12:22;;;;;;;1.13;0.73;;;9.10;91.10;;;;;;5083736;28;20217;-69
2021/11/05 01:14:50;;;;;;;1.17;0.60;;;9.10;91.00;;;;;;5077035;28;20549;-69
2021/11/05 01:17:17;;;;;;;0.73;0.73;;;9.10;91.00;;;;;;5077900;28;20216;-69
2021/11/05 01:19:45;;;;;;;1.27;1.23;;;9.10;91.00;;;;;;5059719;28;20217;-69
2021/11/05 01:22:12;;;;;;;0.80;0.80;;;9.10;91.00;;;;;;5064600;28;20217;-69
2021/11/05 01:24:39;;;;;;;0.10;0.10;;;9.20;91.00;;;;;;5094973;28;20239;-69
2021/11/05 01:27:06;;;;;;;0.57;0.57;;;9.20;90.90;;;;;;5059814;28;20229;-69
2021/11/05 01:29:34;;;;;;;0.23;0.23;;;9.20;90.90;;;;;;5076626;28;20724;-69
2021/11/05 01:32:02;;;;;;;0.80;0.80;;;9.20;91.20;;;;;;5087077;28;20558;-69
2021/11/05 01:34:29;;;;;;;0.97;0.73;;;9.20;90.90;;;;;;5076761;28;20623;-69
2021/11/05 01:36:56;;;;;;;0.30;0.30;;;9.20;90.90;;;;;;5095248;28;20219;-69
2021/11/05 01:39:23;;;;;;;0.47;0.47;;;9.20;90.90;;;;;;5061320;28;20221;-69
2021/11/05 01:41:50;;;;;;;1.13;1.10;;;9.20;90.90;;;;;;5095361;28;20244;-69
2021/11/05 01:44:22;;;;;;;1.17;1.17;;;9.20;90.90;;;;;;5105018;28;20213;-69
2021/11/05 01:46:50;;;;;;;1.77;1.63;;;9.20;90.90;;;;;;5114447;28;20208;-69
2021/11/05 01:49:17;;;;;;;2.00;1.40;;;9.30;90.90;;;;;;5099727;28;20209;-69
2021/11/05 01:51:45;;;;;;;1.13;1.03;;;9.30;90.90;;;;;;5110716;28;20231;-69
2021/11/05 01:54:13;;;;;;;0.20;0.20;;;9.30;90.90;;;;;;5096343;28;20223;-70
2021/11/05 01:56:42;;;;;;;0.60;0.60;;;9.30;90.90;;;;;;5097616;28;20663;-69
2021/11/05 01:59:33;;;;;;;0.63;0.63;;;9.30;90.90;;;;;;5096078;28;20577;-68
2021/11/05 02:02:03;;;;;;;0.30;0.30;;;9.30;90.90;;;;;;5090223;28;20217;-69
2021/11/05 02:04:31;;;;;;;6.03;2.67;;;9.30;90.80;;;;;;5097946;28;20292;-69
2021/11/05 02:06:58;;;;;;;0.67;0.67;;;9.30;90.80;;;;;;5098555;28;20251;-69
2021/11/05 02:09:28;;;;;;;2.63;2.10;;;9.30;90.80;;;;;;5089216;28;20625;-69
2021/11/05 02:11:59;;;;;;;7.27;1.83;;;9.30;90.80;;;;;;5077001;28;20247;-69
2021/11/05 02:14:28;;;;;;;0.97;0.97;;;9.30;90.70;;;;;;5092612;28;20204;-69
2021/11/05 02:16:59;;;;;;;0.50;0.50;;;9.20;90.60;;;;;;5103107;28;20559;-69
2021/11/05 02:19:29;;;;;;;0.53;0.53;;;9.20;90.60;;;;;;5077773;28;20219;-69
2021/11/05 02:21:58;;;;;;;0.50;0.50;;;9.10;90.60;;;;;;5086990;28;20220;-69
2021/11/05 02:24:28;;;;;;;0.20;0.20;;;9.10;90.60;;;;;;5086534;28;20585;-69
2021/11/05 02:26:57;;;;;;;7.53;1.70;;;9.00;90.60;;;;;;5104152;28;20270;-69
2021/11/05 02:29:26;;;;;;;2.53;2.33;;;8.90;90.40;;;;;;5095243;28;20208;-69
2021/11/05 02:31:53;;;;;;;1.33;1.23;;;8.90;90.50;;;;;;5099644;28;20237;-69
2021/11/05 02:34:21;;;;;;;1.57;0.63;;;8.90;90.60;;;;;;5115099;28;20563;-69
2021/11/05 02:36:48;;;;;;;1.07;1.07;;;8.80;90.70;;;;;;5092470;28;20218;-69
2021/11/05 02:39:16;;;;;;;0.83;0.77;;;8.80;90.70;;;;;;5103718;28;20225;-69
2021/11/05 02:41:45;;;;;;;5.93;1.80;;;8.80;90.80;;;;;;5094414;28;20588;-69
2021/11/05 02:44:13;;;;;;;0.47;0.47;;;8.80;90.80;;;;;;5087304;28;20262;-69
2021/11/05 02:46:40;;;;;;;0.67;0.67;;;8.70;90.70;;;;;;5094827;28;20297;-69
2021/11/05 02:49:09;;;;;;;1.07;1.07;;;8.70;90.70;;;;;;5078033;28;20216;-69
2021/11/05 02:51:40;;;;;;;0.80;0.80;;;8.60;90.70;;;;;;5112125;28;20244;-69
2021/11/05 02:54:08;;;;;;;0.57;0.57;;;8.60;90.80;;;;;;5082792;28;20213;-69
2021/11/05 02:56:36;;;;;;;2.27;1.50;;;8.60;90.80;;;;;;5092011;28;20234;-69
2021/11/05 02:59:08;;;;;;;1.27;0.97;;;8.50;90.80;;;;;;5103554;28;20258;-69
2021/11/05 03:01:36;;;;;;;1.17;1.13;;;8.50;90.80;;;;;;5103943;28;20214;-69
2021/11/05 03:04:08;;;;;;;2.00;1.90;;;8.40;90.90;;;;;;5104782;28;20222;-70
2021/11/05 03:06:38;;;;;;;1.07;0.80;;;8.40;90.90;;;;;;5106535;28;20209;-69
2021/11/05 03:09:11;;;;;;;1.43;1.33;;;8.40;91.00;;;;;;5110566;28;20623;-69
2021/11/05 03:11:39;;;;;;;1.33;1.20;;;8.40;91.00;;;;;;5095369;28;20246;-69
2021/11/05 03:14:06;;;;;;;0.90;0.83;;;8.40;91.00;;;;;;5096983;28;20220;-69
2021/11/05 03:16:34;;;;;;;3.10;2.17;;;8.40;91.00;;;;;;5081475;28;20228;-69
2021/11/05 03:19:02;;;;;;;0.20;0.20;;;8.40;91.00;;;;;;5077039;28;20548;-69
2021/11/05 03:21:29;;;;;;;0.50;0.50;;;8.40;91.00;;;;;;5103240;28;20210;-69
2021/11/05 03:23:57;;;;;;;1.23;1.10;;;8.30;90.90;;;;;;5102102;28;20216;-69
2021/11/05 03:26:25;;;;;;;0.30;0.30;;;8.30;91.00;;;;;;5096854;28;20227;-69
2021/11/05 03:28:52;;;;;;;0.97;0.97;;;8.30;91.00;;;;;;5095561;28;20213;-69
2021/11/05 03:31:19;;;;;;;0.50;0.50;;;8.30;91.00;;;;;;5095328;28;20237;-69
2021/11/05 03:33:47;;;;;;;4.10;2.17;;;8.30;91.00;;;;;;5103441;28;20204;-69
2021/11/05 03:36:14;;;;;;;1.10;1.10;;;8.30;91.00;;;;;;5103584;28;20205;-69
2021/11/05 03:38:42;;;;;;;2.23;1.97;;;8.20;90.90;;;;;;5098863;28;20216;-69
2021/11/05 03:41:09;;;;;;;0.60;0.60;;;8.20;91.00;;;;;;5106703;28;20289;-69
2021/11/05 03:43:37;;;;;;;0.50;0.50;;;8.10;91.00;;;;;;5112902;28;20208;-69
2021/11/05 03:46:06;;;;;;;0.97;0.97;;;8.10;91.00;;;;;;5109196;28;20209;-69
2021/11/05 03:48:39;;;;;;;1.80;1.27;;;8.10;91.00;;;;;;5104141;28;20215;-70
2021/11/05 03:51:07;;;;;;;1.27;1.23;;;8.10;91.10;;;;;;5103925;28;20228;-69
2021/11/05 03:53:36;;;;;;;5.07;1.63;;;8.10;91.10;;;;;;5092899;28;20212;-69
2021/11/05 03:56:04;;;;;;;0.40;0.40;;;8.10;91.10;;;;;;5095474;28;20296;-69
2021/11/05 03:58:31;;;;;;;0.60;0.60;;;8.10;91.10;;;;;;5114889;28;20208;-69
2021/11/05 04:00:58;;;;;;;0.33;0.33;;;8.10;91.10;;;;;;5091521;28;20213;-69
2021/11/05 04:03:26;;;;;;;1.27;1.27;;;8.00;91.10;;;;;;5107450;28;20261;-69
2021/11/05 04:05:53;;;;;;;0.70;0.67;;;8.00;91.10;;;;;;5082470;28;20208;-69
2021/11/05 04:08:20;;;;;;;0.70;0.70;;;8.00;91.10;;;;;;5099636;28;20240;-69
2021/11/05 04:10:47;;;;;;;0.20;0.20;;;8.00;91.10;;;;;;5102360;28;20234;-69
2021/11/05 04:13:15;;;;;;;0.43;0.43;;;8.00;91.10;;;;;;5093816;28;20260;-69
2021/11/05 04:15:42;;;;;;;1.60;1.13;;;8.00;91.10;;;;;;5104778;28;20232;-69
2021/11/05 04:18:09;;;;;;;0.53;0.53;;;8.00;91.10;;;;;;5088025;28;20213;-69
2021/11/05 04:20:36;;;;;;;2.30;1.33;;;8.00;91.10;;;;;;5114706;28;20254;-69
2021/11/05 04:23:09;;;;;;;7.20;2.17;;;8.00;91.20;;;;;;5116162;28;20607;-69
2021/11/05 04:25:36;;;;;;;0.30;0.30;;;8.00;91.20;;;;;;5094272;28;20295;-69
2021/11/05 04:28:07;;;;;;;5.07;1.53;;;8.00;91.20;;;;;;5104485;28;20232;-69
2021/11/05 04:30:34;;;;;;;0.87;0.87;;;8.00;91.20;;;;;;5109297;28;20300;-69
2021/11/05 04:33:02;;;;;;;3.10;2.63;;;8.00;91.20;;;;;;5100678;28;20521;-69
2021/11/05 04:35:30;;;;;;;0.87;0.87;;;8.00;91.30;;;;;;5096921;28;20223;-69
2021/11/05 04:37:57;;;;;;;0.20;0.20;;;8.00;91.30;;;;;;5084193;28;20284;-69
2021/11/05 04:40:24;;;;;;;1.03;1.03;;;8.00;91.30;;;;;;5085799;28;20682;-69
2021/11/05 04:42:51;;;;;;;1.10;1.10;;;8.10;91.40;;;;;;5089191;28;20296;-69
2021/11/05 04:45:18;;;;;;;0.87;0.87;;;8.10;91.40;;;;;;5083373;28;20209;-69
2021/11/05 04:47:45;;;;;;;1.40;1.40;;;8.10;91.30;;;;;;5085934;28;20305;-69
2021/11/05 04:50:12;;;;;;;0.63;0.63;;;8.10;91.30;;;;;;5076438;28;20228;-69
2021/11/05 04:52:39;;;;;;;0.67;0.67;;;8.20;91.30;;;;;;5089963;28;20233;-69
2021/11/05 04:55:07;;;;;;;0.10;0.10;;;8.20;91.20;;;;;;5083529;28;20208;-69
2021/11/05 04:57:34;;;;;;;0.40;0.40;;;8.20;91.50;;;;;;5086081;28;20210;-69
2021/11/05 05:00:03;;;;;;;1.27;1.27;;;8.20;91.20;;;;;;5067231;28;20300;-69
2021/11/05 05:02:31;;;;;;;0.30;0.30;;;8.20;91.20;;;;;;5075194;28;20662;-69
2021/11/05 05:04:58;;;;;;;0.30;0.30;;;8.20;91.20;;;;;;5066178;28;20227;-69
2021/11/05 05:07:25;;;;;;;0.93;0.70;;;8.30;91.20;;;;;;5087752;28;20214;-70
2021/11/05 05:09:52;;;;;;;2.90;0.90;;;8.30;91.20;;;;;;5074290;28;20209;-70
2021/11/05 05:12:19;;;;;;;0.60;0.60;;;8.30;91.10;;;;;;5087155;28;20233;-69
2021/11/05 05:14:46;;;;;;;1.20;1.13;;;8.30;91.10;;;;;;5071185;28;20316;-70
2021/11/05 05:17:14;;;;;;;0.57;0.57;;;8.30;91.40;;;;;;5091129;28;20231;-69
2021/11/05 05:19:41;;;;;;;1.17;0.93;;;8.30;91.10;;;;;;5078688;28;20221;-69
2021/11/05 05:22:08;;;;;;;0.20;0.20;;;8.30;91.10;;;;;;5089458;28;20607;-69
2021/11/05 05:24:36;;;;;;;0.20;0.20;;;8.30;91.10;;;;;;5087237;28;20217;-69
2021/11/05 05:27:04;;;;;;;1.63;1.53;;;8.20;91.00;;;;;;5074489;28;20210;-69
2021/11/05 05:29:31;;;;;;;0.30;0.30;;;8.20;91.00;;;;;;5086500;28;20217;-69
2021/11/05 05:31:58;;;;;;;0.60;0.60;;;8.10;91.00;;;;;;5083930;28;20237;-69
2021/11/05 05:34:25;;;;;;;0.10;0.10;;;8.10;91.10;;;;;;5066946;28;20569;-69
2021/11/05 05:36:52;;;;;;;0.20;0.20;;;8.20;91.10;;;;;;5084071;28;20205;-69
2021/11/05 05:39:19;;;;;;;3.60;0.60;;;8.20;91.10;;;;;;5084667;28;20225;-69
2021/11/05 05:41:46;;;;;;;3.53;0.77;;;8.20;91.00;;;;;;5106609;28;20327;-69
2021/11/05 05:44:13;;;;;;;0.60;0.60;;;8.10;91.00;;;;;;5090835;28;20209;-69
2021/11/05 05:46:40;;;;;;;0.53;0.50;;;8.10;91.00;;;;;;5094782;28;20616;-69
2021/11/05 05:49:07;;;;;;;2.90;0.77;;;8.10;91.00;;;;;;5085551;28;20221;-70
2021/11/05 05:51:34;;;;;;;0.20;0.20;;;8.10;91.00;;;;;;5088101;28;20259;-71
2021/11/05 05:54:03;;;;;;;0.60;0.60;;;8.10;91.00;;;;;;5085241;28;20205;-69
2021/11/05 05:56:30;;;;;;;1.90;1.03;;;8.10;91.00;;;;;;5081682;28;20242;-70
2021/11/05 05:58:57;;;;;;;0.70;0.70;;;8.10;90.90;;;;;;5082583;28;20549;-69
2021/11/05 06:01:24;;;;;;;0.70;0.70;;;8.00;90.90;;;;;;5096336;28;20209;-69
2021/11/05 06:03:51;;;;;;;0.10;0.10;;;8.00;90.90;;;;;;5099494;28;20208;-70
2021/11/05 06:06:18;;;;;;;0.30;0.30;;;8.00;91.00;;;;;;5100228;28;20271;-70
2021/11/05 06:08:45;;;;;;;0.80;0.80;;;8.00;91.00;;;;;;5092070;28;20236;-69
2021/11/05 06:11:12;;;;;;;2.73;0.97;;;8.00;90.90;;;;;;5097369;28;20237;-69
2021/11/05 06:13:38;;;;;;;0.77;0.77;;;8.00;90.90;;;;;;5094014;28;20634;-69
2021/11/05 06:16:07;;;;;;;3.30;1.60;;;8.00;91.00;;;;;;5097525;28;20204;-69
2021/11/05 06:18:35;;;;;;;0.10;0.10;;;8.10;91.00;;;;;;5089826;28;20208;-69
2021/11/05 06:21:04;;;;;;;0.47;0.47;;;8.10;90.90;;;;;;5085797;28;20217;-69
2021/11/05 06:23:31;;;;;;;0.53;0.53;;;8.20;90.90;;;;;;5098034;28;20209;-69
2021/11/05 06:25:59;;;;;;;0.30;0.30;;;8.20;90.90;;;;;;5095654;28;20294;-69
2021/11/05 06:28:26;;;;;;;0.80;0.80;;;8.30;90.90;;;;;;5097368;28;20217;-69
2021/11/05 06:30:53;;;;;;;0.43;0.43;;;8.30;90.80;;;;;;5105587;28;20648;-69
2021/11/05 06:33:20;;;;;;;0.30;0.30;;;8.30;90.70;;;;;;5104651;28;20209;-69
2021/11/05 06:35:47;;;;;;;0.00;0.00;;;8.40;90.70;;;;;;5082895;28;20220;-69
2021/11/05 06:38:15;;;;;;;0.30;0.30;;;8.40;90.80;;;;;;5098764;28;20216;-70
2021/11/05 06:40:43;;;;;;;3.60;0.80;;;8.50;90.70;;;;;;5098928;28;20669;-69
2021/11/05 06:43:10;;;;;;;0.20;0.20;;;8.50;90.60;;;;;;5098704;28;20213;-69
2021/11/05 06:45:37;;;;;;;0.93;0.93;;;8.60;90.40;;;;;;5083731;28;20216;-69
2021/11/05 06:48:04;;;;;;;0.10;0.10;;;8.60;90.30;;;;;;5102800;28;20292;-69
2021/11/05 06:50:32;;;;;;;0.83;0.83;;;8.60;90.10;;;;;;5100894;28;20214;-69
2021/11/05 06:52:59;;;;;;;0.67;0.67;;;8.70;90.10;;;;;;5089541;28;20240;-69
2021/11/05 06:55:26;;;;;;;0.10;0.10;;;8.80;90.20;;;;;;5113720;28;20216;-69
2021/11/05 06:57:53;;;;;;;0.40;0.40;;;8.90;90.30;;;;;;5110310;28;20719;-69
2021/11/05 07:00:20;;;;;;;0.30;0.30;;;9.10;90.20;;;;;;5083773;28;20830;-69
2021/11/05 07:02:47;;;;;;;0.77;0.77;;;9.20;90.10;;;;;;5086226;28;20212;-69
2021/11/05 07:05:15;;;;;;;0.10;0.10;;;9.40;90.00;;;;;;5082966;28;20564;-69
2021/11/05 07:07:43;;;;;;;0.17;0.17;;;9.60;89.80;;;;;;5089995;28;20217;-69
2021/11/05 07:10:11;;;;;;;2.30;1.17;;;9.70;89.40;;;;;;5095825;28;20216;-69
2021/11/05 07:12:39;;;;;;;0.10;0.10;;;9.90;89.00;;;;;;5091314;28;20626;-70
2021/11/05 07:15:11;;;;;;;0.60;0.60;;;10.00;88.30;;;;;;5087629;28;20292;-69
2021/11/05 07:17:39;;;;;;;0.57;0.57;;;10.10;87.70;;;;;;5108382;28;20219;-70
2021/11/05 07:20:07;;;;;;;0.37;0.30;;;10.20;87.20;;;;;;5092596;28;20700;-70
2021/11/05 07:22:37;;;;;;;1.13;1.13;;;10.20;86.90;;;;;;5082716;28;20262;-69
2021/11/05 07:25:05;;;;;;;0.60;0.60;;;10.20;86.70;;;;;;5101583;28;20216;-69
2021/11/05 07:27:33;;;;;;;0.97;0.27;;;10.20;86.70;;;;;;5094545;28;20213;-69
2021/11/05 07:30:00;;;;;;;0.40;0.40;;;10.20;86.90;;;;;;5089676;28;20246;-69
2021/11/05 07:32:27;;;;;;;0.83;0.57;;;10.20;86.90;;;;;;5109400;28;20228;-69
2021/11/05 07:34:55;;;;;;;0.10;0.10;;;10.20;87.00;;;;;;5116252;28;20212;-69
2021/11/05 07:37:22;;;;;;;1.70;0.30;;;10.20;87.00;;;;;;5107216;28;20209;-69
2021/11/05 07:39:50;;;;;;;0.20;0.20;;;10.20;86.80;;;;;;5111369;28;20209;-69
2021/11/05 07:42:17;;;;;;;5.20;1.37;;;10.30;86.70;;;;;;5108217;28;20627;-69
2021/11/05 07:44:45;;;;;;;3.10;0.60;;;10.30;86.60;;;;;;5089910;28;20299;-69
2021/11/05 07:47:13;;;;;;;0.20;0.20;;;10.40;86.40;;;;;;5093550;28;20216;-69
2021/11/05 07:49:40;;;;;;;0.73;0.73;;;10.50;86.00;;;;;;5078927;28;20235;-69
2021/11/05 07:52:08;;;;;;;0.20;0.20;;;10.50;85.90;;;;;;5109126;28;20241;-69
2021/11/05 07:54:35;;;;;;;1.23;0.60;;;10.40;85.80;;;;;;5086093;28;20240;-69
2021/11/05 07:57:02;;;;;;;6.30;1.17;;;10.40;85.80;;;;;;5088934;28;20270;-69
2021/11/05 07:59:29;;;;;;;0.10;0.10;;;10.40;86.00;;;;;;5105272;28;20259;-70
2021/11/05 08:01:56;;;;;;;0.47;0.47;;;10.30;86.20;;;;;;5102431;28;20220;-70
2021/11/05 08:04:24;;;;;;;1.70;1.17;;;10.30;86.30;;;;;;5092661;28;20205;-71
2021/11/05 08:06:51;;;;;;;0.87;0.87;;;10.30;86.30;;;;;;5101806;28;20248;-70
2021/11/05 08:09:19;;;;;;;0.13;0.13;;;10.30;86.30;;;;;;5106689;28;20677;-70
2021/11/05 08:11:46;;;;;;;1.70;1.17;;;10.30;86.40;;;;;;5112374;28;20296;-70
2021/11/05 08:14:13;;;;;;;1.00;0.90;;;10.30;86.50;;;;;;5107339;28;20266;-70
2021/11/05 08:16:40;;;;;;;0.20;0.20;;;10.30;86.60;;;;;;5106048;28;20209;-70
2021/11/05 08:19:07;;;;;;;0.47;0.40;;;10.30;86.50;;;;;;5106371;28;20223;-71
2021/11/05 08:21:34;;;;;;;0.20;0.20;;;10.40;86.50;;;;;;5112580;28;20216;-70
2021/11/05 08:24:02;;;;;;;0.30;0.30;;;10.40;86.30;;;;;;5107263;28;20656;-70
2021/11/05 08:26:31;;;;;;;0.10;0.10;;;10.50;86.40;;;;;;5088432;28;20220;-70
2021/11/05 08:28:59;;;;;;;0.37;0.37;;;10.50;86.40;;;;;;5094981;28;20634;-70
2021/11/05 08:31:32;;;;;;;0.73;0.73;;;10.50;86.50;;;;;;5108705;28;20216;-70
2021/11/05 08:34:00;;;;;;;0.33;0.33;;;10.60;86.40;;;;;;5088737;28;20243;-70
2021/11/05 08:36:27;;;;;;;0.43;0.30;;;10.70;86.90;;;;;;5103136;28;20221;-70
2021/11/05 08:38:55;;;;;;;0.20;0.20;;;10.90;86.10;;;;;;5109787;28;20209;-70
2021/11/05 08:41:22;;;;;;;0.20;0.20;;;11.00;85.80;;;;;;5103232;28;20293;-71
2021/11/05 08:43:57;;;;;;;0.57;0.57;;;11.10;85.60;;;;;;5094412;28;20212;-70
2021/11/05 08:46:29;;;;;;;0.30;0.30;;;11.30;85.30;;;;;;5099281;28;20272;-70
2021/11/05 08:49:16;;;;;;;0.63;0.63;;;11.40;84.90;;;;;;5103298;28;20212;-70
2021/11/05 08:51:47;;;;;;;2.10;0.97;;;11.50;84.60;;;;;;5103278;28;20228;-71
2021/11/05 08:54:14;;;;;;;0.70;0.70;;;11.70;84.30;;;;;;5086952;28;20219;-71
2021/11/05 08:56:42;;;;;;;0.33;0.33;;;11.80;84.10;;;;;;5092016;28;20205;-71
2021/11/05 08:59:12;;;;;;;0.87;0.87;;;12.00;83.80;;;;;;5116152;28;20213;-70
2021/11/05 09:01:39;;;;;;;0.20;0.20;;;12.20;83.40;;;;;;5090056;28;20209;-71
2021/11/05 09:04:07;;;;;;;1.10;0.53;;;12.30;83.00;;;;;;5085115;28;20220;-71
2021/11/05 09:06:34;;;;;;;0.43;0.43;;;12.50;82.50;;;;;;5088867;28;20221;-71
2021/11/05 09:09:02;;;;;;;1.07;1.07;;;12.70;82.10;;;;;;5091736;28;20524;-71
2021/11/05 09:11:29;;;;;;;0.10;0.10;;;12.90;81.70;;;;;;5100094;28;20216;-71
2021/11/05 09:13:57;;;;;;;0.20;0.20;;;13.00;81.40;;;;;;5083988;28;20413;-72
2021/11/05 09:16:28;;;;;;;0.43;0.43;;;13.10;80.90;;;;;;5086710;28;20220;-71
2021/11/05 09:18:57;;;;;;;0.10;0.10;;;13.20;80.80;;;;;;5109099;28;20660;-71
2021/11/05 09:21:24;;;;;;;4.90;2.80;;;13.20;80.60;;;;;;5106854;28;20205;-71
2021/11/05 09:23:51;;;;;;;1.30;1.17;;;13.30;81.20;;;;;;5099763;28;20220;-71
2021/11/05 09:26:18;;;;;;;0.47;0.47;;;13.30;80.30;;;;;;5097490;28;20282;-71
2021/11/05 09:28:45;;;;;;;0.80;0.80;;;13.40;80.30;;;;;;5098159;28;20228;-71
2021/11/05 09:31:12;;;;;;;0.40;0.40;;;13.30;80.30;;;;;;5100187;28;20213;-71
2021/11/05 09:33:40;;;;;;;0.30;0.30;;;13.40;81.10;;;;;;5088836;28;20229;-71
2021/11/05 09:36:07;;;;;;;1.10;0.60;;;13.50;80.50;;;;;;5105012;28;20212;-72
2021/11/05 09:38:34;;;;;;;0.27;0.27;;;13.60;80.40;;;;;;5107497;28;20213;-72
2021/11/05 09:41:01;;;;;;;0.37;0.37;;;13.70;80.20;;;;;;5096882;28;20240;-72
2021/11/05 09:43:29;;;;;;;0.93;0.93;;;13.80;79.80;;;;;;5083535;28;20229;-72
2021/11/05 09:45:57;;;;;;;1.40;1.30;;;14.00;79.70;;;;;;5102181;28;20660;-72
2021/11/05 09:48:26;;;;;;;1.00;1.00;;;14.10;79.20;;;;;;5086948;28;20209;-72
2021/11/05 09:50:53;;;;;;;0.50;0.50;;;14.20;79.00;;;;;;5100378;28;20609;-72
2021/11/05 09:53:26;;;;;;;0.13;0.13;;;14.40;78.70;;;;;;5104629;28;20228;-72
2021/11/05 09:55:54;;;;;;;0.40;0.40;;;14.50;78.50;;;;;;5104342;28;20224;-72
2021/11/05 09:58:21;;;;;;;0.20;0.20;;;14.60;78.90;;;;;;5114875;28;20213;-71
2021/11/05 10:00:48;;;;;;;0.87;0.83;;;14.70;77.70;;;;;;5114672;28;20273;-71
2021/11/05 10:03:15;;;;;;;1.03;0.67;;;14.60;77.60;;;;;;5095777;28;20217;-71
2021/11/05 10:05:44;;;;;;;0.10;0.10;;;14.70;77.80;;;;;;5084758;28;20212;-71
2021/11/05 10:08:11;;;;;;;0.73;0.43;;;14.70;76.90;;;;;;5086221;28;20284;-71
2021/11/05 10:10:40;;;;;;;0.93;0.70;;;14.70;77.00;;;;;;5077847;28;20213;-72
2021/11/05 10:13:13;;;;;;;1.70;1.10;;;14.70;77.10;;;;;;5109412;28;20234;-71
2021/11/05 10:15:44;;;;;;;1.93;0.50;;;14.80;77.30;;;;;;5082133;28;20213;-71
2021/11/05 10:18:21;;;;;;;0.20;0.20;;;15.00;77.00;;;;;;5082847;28;20563;-71
2021/11/05 10:21:04;;;;;;;0.10;0.10;;;15.10;76.80;;;;;;5076426;28;20221;-72
2021/11/05 10:23:35;;;;;;;0.67;0.67;;;15.20;76.80;;;;;;5101282;28;20208;-71
2021/11/05 10:26:03;;;;;;;0.40;0.40;;;15.40;76.20;;;;;;5082499;28;20221;-71
2021/11/05 10:28:31;;;;;;;1.90;0.40;;;15.50;76.10;;;;;;5096751;28;20246;-71
2021/11/05 10:31:05;;;;;;;0.43;0.43;;;15.60;74.80;;;;;;5087184;28;20219;-71
2021/11/05 10:33:41;;;;;;;0.60;0.60;;;15.60;73.60;;;;;;5096865;28;20233;-72
2021/11/05 10:36:11;;;;;;;0.50;0.50;;;15.50;72.60;;;;;;5094855;28;20208;-71
2021/11/05 10:38:51;;;;;;;0.30;0.30;;;15.40;72.20;;;;;;5082740;28;20213;-71
2021/11/05 10:41:21;;;;;;;0.20;0.20;;;15.40;72.80;;;;;;5104383;28;20236;-71
2021/11/05 10:43:55;;;;;;;0.83;0.83;;;15.60;71.80;;;;;;5083184;28;20208;-71
2021/11/05 10:46:39;;;;;;;0.67;0.50;;;15.60;71.00;;;;;;5083405;28;20220;-71
2021/11/05 10:49:26;;;;;;;1.33;1.23;;;15.60;70.60;;;;;;5101519;28;20265;-71
2021/11/05 10:52:20;;;;;;;0.80;0.80;;;15.50;69.80;;;;;;5082134;28;20549;-71
2021/11/05 10:54:55;;;;;;;1.10;1.00;;;15.50;71.40;;;;;;5086399;28;20208;-71
2021/11/05 10:57:57;;;;;;;0.60;0.60;;;15.60;70.60;;;;;;5102004;28;20222;-71
2021/11/05 11:00:30;;;;;;;2.53;1.30;;;15.60;69.60;;;;;;5071256;28;20213;-71
2021/11/05 11:03:09;;;;;;;0.50;0.50;;;15.60;69.30;;;;;;5083167;28;20295;-72
2021/11/05 11:05:42;;;;;;;0.70;0.57;;;15.60;69.80;;;;;;5101615;28;20208;-72
2021/11/05 11:08:18;;;;;;;1.67;1.57;;;15.70;69.70;;;;;;5088000;28;20215;-72
2021/11/05 11:10:49;;;;;;;2.50;1.57;;;15.70;70.00;;;;;;5102088;28;20219;-72
2021/11/05 11:13:30;;;;;;;0.47;0.47;;;15.80;70.50;;;;;;5085448;28;20232;-72
2021/11/05 11:16:00;;;;;;;0.77;0.77;;;16.00;69.90;;;;;;5086531;28;20642;-72
2021/11/05 11:18:27;;;;;;;0.83;0.80;;;16.00;67.20;;;;;;5104996;28;20205;-72
2021/11/05 11:20:55;;;;;;;0.77;0.77;;;16.10;68.20;;;;;;5100694;28;20204;-72
2021/11/05 11:23:22;;;;;;;1.90;1.10;;;16.20;67.60;;;;;;5086104;28;20646;-72
2021/11/05 11:25:50;;;;;;;0.40;0.40;;;16.20;66.70;;;;;;5103392;28;20212;-72
2021/11/05 11:28:17;;;;;;;0.23;0.23;;;16.30;67.10;;;;;;5086548;28;20259;-72
2021/11/05 11:30:44;;;;;;;0.27;0.27;;;16.30;66.80;;;;;;5101365;28;20220;-72
2021/11/05 11:33:12;;;;;;;0.87;0.87;;;16.30;67.00;;;;;;5102019;28;20251;-72
2021/11/05 11:35:42;;;;;;;0.10;0.10;;;16.20;67.30;;;;;;5106265;28;20216;-72
2021/11/05 11:38:13;;;;;;;0.63;0.63;;;16.20;67.30;;;;;;5103594;28;20205;-72
2021/11/05 11:40:41;;;;;;;0.67;0.67;;;16.20;67.70;;;;;;5102242;28;20309;-72
2021/11/05 11:43:08;;;;;;;4.10;1.93;;;16.20;67.20;;;;;;5084431;28;20228;-72
2021/11/05 11:45:48;;;;;;;0.20;0.20;;;16.20;66.30;;;;;;5104201;28;20864;-72
2021/11/05 11:48:43;;;;;;;0.47;0.47;;;16.10;66.30;;;;;;5082950;28;20209;-72
2021/11/05 11:51:24;;;;;;;0.57;0.57;;;16.00;66.90;;;;;;5077089;28;20274;-72
2021/11/05 11:54:00;;;;;;;1.73;1.20;;;16.00;67.00;;;;;;5085798;28;20668;-72
2021/11/05 11:56:45;;;;;;;3.93;1.70;;;16.00;67.10;;;;;;5102175;28;20215;-72
2021/11/05 11:59:15;;;;;;;0.67;0.67;;;16.00;66.40;;;;;;5098575;28;20212;-72
2021/11/05 12:01:45;;;;;;;0.30;0.30;;;15.90;66.60;;;;;;5103051;28;20530;-72
2021/11/05 12:04:15;;;;;;;0.30;0.30;;;16.00;67.10;;;;;;5102186;28;20644;-72
2021/11/05 12:06:56;;;;;;;0.83;0.83;;;16.00;67.00;;;;;;5103599;28;20212;-72
2021/11/05 12:09:32;;;;;;;1.70;1.07;;;16.00;67.20;;;;;;5103799;28;20589;-72
2021/11/05 12:12:21;;;;;;;1.33;1.23;;;15.90;66.70;;;;;;5101903;28;20215;-72
2021/11/05 12:15:03;;;;;;;0.53;0.53;;;15.80;66.60;;;;;;5089071;28;20213;-71
2021/11/05 12:17:45;;;;;;;0.40;0.40;;;15.70;67.20;;;;;;5092132;28;20224;-71
2021/11/05 12:20:34;;;;;;;1.23;0.90;;;15.70;67.90;;;;;;5106219;28;20307;-71
2021/11/05 12:23:10;;;;;;;0.10;0.10;;;15.70;68.00;;;;;;5105348;28;20209;-71
2021/11/05 12:26:01;;;;;;;0.20;0.20;;;15.70;67.80;;;;;;5086327;28;20250;-71
2021/11/05 12:28:42;;;;;;;0.20;0.20;;;15.60;66.70;;;;;;5085832;28;20221;-71
2021/11/05 12:31:25;;;;;;;0.53;0.47;;;15.50;67.60;;;;;;5086198;28;20223;-71
2021/11/05 12:33:53;;;;;;;3.33;1.20;;;15.50;67.90;;;;;;5096910;28;20269;-71
2021/11/05 12:36:41;;;;;;;0.93;0.93;;;15.50;67.90;;;;;;5088876;28;20213;-71
2021/11/05 12:39:08;;;;;;;1.03;0.80;;;15.50;68.30;;;;;;5107686;28;20604;-71
2021/11/05 12:42:00;;;;;;;1.77;0.83;;;15.50;68.50;;;;;;5106140;28;20237;-71
2021/11/05 12:44:28;;;;;;;0.33;0.33;;;15.40;68.70;;;;;;5098189;28;20575;-70
2021/11/05 12:46:56;;;;;;;0.50;0.50;;;15.40;69.30;;;;;;5086095;28;20204;-71
2021/11/05 12:49:24;;;;;;;0.63;0.50;;;15.40;69.60;;;;;;5087681;28;20213;-71
2021/11/05 12:51:52;;;;;;;0.43;0.43;;;15.40;70.00;;;;;;5099538;28;20216;-71
2021/11/05 12:54:25;;;;;;;0.50;0.50;;;15.30;70.20;;;;;;5104008;28;20267;-71
2021/11/05 12:56:55;;;;;;;0.17;0.17;;;15.40;70.60;;;;;;5086104;28;20216;-70
2021/11/05 12:59:25;;;;;;;0.47;0.30;;;15.40;70.30;;;;;;5086947;28;20202;-70
2021/11/05 13:01:59;;;;;;;0.57;0.37;;;15.30;70.20;;;;;;5102586;28;20201;-70
2021/11/05 13:04:32;;;;;;;0.73;0.73;;;15.20;70.00;;;;;;5083190;28;20213;-69